KDZB

Horseshoe Bay Resort Airport

Horseshoe Bay, Texas, USA
METAR KDZB 240155Z AUTO 13004KT 10SM CLR 26/19 A3000 RMK AO2 T02610193
Observed Flight Rules
May-24 @ 01:55 UTC (19 minutes ago) Visual Flight Rules
Wind Visibility Clouds
130° at 4 knots 10 miles
  • Clear skies
Temperatures Readings
Current 26°C / 79°F
Dewpoint 19°C / 66°F
Humidity 65%
Altimeter 30" Hg
Pressure 1016 hPa
Elevation 334
METAR KDZB 240155Z AUTO 13004KT 10SM CLR 26/19 A3000 RMK AO2 T02610193
Observed Flight Rules
May-24 @ 01:55 UTC
(19 minutes ago)
VFR
Wind Visibility
130° at 4 knots 10 miles
Clouds
  • Clear skies
Temperature Dewpoint
26°C / 79°F 19°C / 66°F
Humidity Altimeter Pressure
65% 30" Hg 1016 hPa